Time;durP1;ratioP1;P1;durP2;ratioP2;P2;SDS_P1;SDS_P2;PMS_P1;PMS_P2;Temp;Humidity;BMP_temperature;BMP_pressure;BME280_temperature;BME280_humidity;BME280_pressure;Samples;Min_cycle;Max_cycle;Signal;HPM_P1;HPM_P2
2021/01/02 00:01:16;;;;;;;61.80;32.35;;;1.90;99.90;;;;;;4992738;28;20290;-74
2021/01/02 00:03:48;;;;;;;55.20;29.65;;;1.80;99.90;;;;;;4993980;28;20100;-74
2021/01/02 00:06:48;;;;;;;55.80;31.48;;;1.70;99.10;;;;;;4993649;28;20045;-74
2021/01/02 00:09:18;;;;;;;53.15;31.10;;;1.60;99.40;;;;;;4992332;28;20031;-74
2021/01/02 00:11:58;;;;;;;54.80;30.42;;;1.60;99.90;;;;;;4992604;28;20264;-74
2021/01/02 00:14:47;;;;;;;50.63;28.23;;;1.50;98.30;;;;;;4992121;28;20030;-74
2021/01/02 00:17:43;;;;;;;55.55;30.65;;;1.40;98.50;;;;;;4992602;28;20567;-74
2021/01/02 00:20:18;;;;;;;62.08;31.77;;;1.30;99.90;;;;;;4982210;28;20034;-74
2021/01/02 00:22:47;;;;;;;54.47;31.75;;;1.30;99.90;;;;;;4992379;28;20482;-74
2021/01/02 00:25:15;;;;;;;61.15;30.30;;;1.50;99.90;;;;;;4993096;28;20398;-74
2021/01/02 00:27:59;;;;;;;53.72;29.25;;;1.50;99.90;;;;;;4992025;28;20031;-74
2021/01/02 00:30:43;;;;;;;48.45;28.55;;;1.40;99.90;;;;;;4993311;28;20105;-74
2021/01/02 00:33:19;;;;;;;50.50;28.02;;;1.30;99.90;;;;;;4992265;28;20062;-74
2021/01/02 00:35:48;;;;;;;48.10;27.20;;;1.10;99.90;;;;;;4975470;28;20033;-74
2021/01/02 00:38:15;;;;;;;55.95;29.25;;;1.00;99.90;;;;;;4993374;28;20014;-74
2021/01/02 00:40:41;;;;;;;58.95;30.70;;;0.80;99.90;;;;;;4993042;28;20054;-74
2021/01/02 00:43:07;;;;;;;54.15;27.13;;;0.80;99.90;;;;;;4992012;28;20565;-74
2021/01/02 00:45:33;;;;;;;55.25;30.98;;;0.90;99.90;;;;;;4991642;28;20034;-74
2021/01/02 00:48:02;;;;;;;54.10;31.00;;;1.00;99.90;;;;;;4992043;28;20105;-74
2021/01/02 00:50:28;;;;;;;54.13;28.23;;;1.00;99.90;;;;;;4993656;28;20019;-74
2021/01/02 00:53:45;;;;;;;57.63;31.25;;;1.00;99.90;;;;;;4992755;28;20030;-74
2021/01/02 00:56:33;;;;;;;49.78;28.27;;;1.10;99.90;;;;;;4975048;28;20062;-74
2021/01/02 00:59:34;;;;;;;54.80;29.80;;;1.10;99.90;;;;;;4992986;28;20109;-74
2021/01/02 01:02:26;;;;;;;54.75;28.60;;;1.30;99.90;;;;;;4989354;28;20030;-74
2021/01/02 01:05:03;;;;;;;55.20;31.75;;;1.30;99.50;;;;;;4991707;28;20037;-74
2021/01/02 01:07:32;;;;;;;55.15;30.33;;;1.30;99.90;;;;;;4993092;28;20026;-74
2021/01/02 01:10:00;;;;;;;59.15;31.88;;;1.30;99.90;;;;;;4993210;28;20030;-74
2021/01/02 01:12:36;;;;;;;65.20;35.03;;;1.40;99.90;;;;;;4975154;28;20053;-74
2021/01/02 01:15:02;;;;;;;61.30;34.40;;;1.40;99.90;;;;;;4992467;28;20022;-74
2021/01/02 01:17:32;;;;;;;56.78;32.90;;;1.50;99.90;;;;;;4991271;28;20390;-74
2021/01/02 01:20:02;;;;;;;63.08;35.47;;;1.50;99.90;;;;;;4991248;28;20390;-74
2021/01/02 01:22:34;;;;;;;66.18;34.55;;;1.50;99.90;;;;;;4992503;28;20501;-74
2021/01/02 01:25:06;;;;;;;57.63;30.17;;;1.60;99.90;;;;;;4991097;28;20069;-74
2021/01/02 01:27:53;;;;;;;;;;;1.70;99.90;;;;;;4975495;28;20108;-74
2021/01/02 01:30:23;;;;;;;51.58;28.30;;;1.80;99.90;;;;;;4992074;28;19906;-74
2021/01/02 01:33:00;;;;;;;57.40;30.20;;;1.70;99.90;;;;;;4990905;28;20033;-74
2021/01/02 01:35:27;;;;;;;55.97;30.90;;;1.60;99.90;;;;;;4992099;28;20027;-74
2021/01/02 01:37:55;;;;;;;49.72;28.00;;;1.60;99.90;;;;;;4992029;28;20073;-74
2021/01/02 01:40:26;;;;;;;54.17;30.65;;;1.40;99.90;;;;;;4991465;28;20547;-74
2021/01/02 01:43:20;;;;;;;52.78;28.40;;;1.30;99.90;;;;;;4991923;28;20026;-74
2021/01/02 01:46:10;;;;;;;52.50;29.15;;;1.20;99.90;;;;;;4990822;28;20088;-74
2021/01/02 01:48:55;;;;;;;54.40;30.20;;;1.20;99.90;;;;;;4990720;28;20022;-74
2021/01/02 01:51:56;;;;;;;54.28;29.95;;;1.30;99.90;;;;;;4991927;28;20453;-74
2021/01/02 01:54:42;;;;;;;61.95;31.00;;;1.40;99.90;;;;;;4991471;28;20552;-74
2021/01/02 01:57:10;;;;;;;57.75;31.17;;;1.60;99.90;;;;;;4990753;28;20031;-74
2021/01/02 01:59:56;;;;;;;55.97;31.58;;;1.70;99.90;;;;;;4990382;28;20076;-74
2021/01/02 02:02:47;;;;;;;55.20;31.17;;;1.70;99.90;;;;;;4991862;28;20022;-74
2021/01/02 02:05:14;;;;;;;52.45;30.67;;;1.90;99.90;;;;;;4990218;28;20041;-74
2021/01/02 02:07:39;;;;;;;54.67;30.98;;;1.90;99.90;;;;;;4990612;28;20029;-74
2021/01/02 02:10:06;;;;;;;45.40;27.45;;;2.00;99.90;;;;;;4990165;28;20382;-74
2021/01/02 02:12:33;;;;;;;54.95;31.80;;;1.90;99.70;;;;;;4991751;28;20026;-74
2021/01/02 02:14:59;;;;;;;58.67;30.58;;;2.00;99.90;;;;;;4989892;28;20391;-74
2021/01/02 02:17:27;;;;;;;54.63;31.25;;;2.00;99.90;;;;;;4990484;28;20034;-74
2021/01/02 02:20:09;;;;;;;58.65;31.25;;;2.00;99.90;;;;;;4990292;28;20042;-74
2021/01/02 02:22:37;;;;;;;56.35;31.27;;;2.10;99.90;;;;;;4991447;28;20038;-74
2021/01/02 02:25:06;;;;;;;57.63;31.60;;;2.10;99.90;;;;;;4991099;28;20073;-74
2021/01/02 02:27:36;;;;;;;51.70;31.27;;;2.20;99.50;;;;;;4991685;28;20101;-74
2021/01/02 02:30:09;;;;;;;54.63;30.88;;;2.10;99.20;;;;;;4991351;28;20030;-74
2021/01/02 02:32:41;;;;;;;59.97;32.08;;;1.80;98.90;;;;;;4990673;28;20030;-74
2021/01/02 02:35:18;;;;;;;52.60;29.48;;;1.70;99.90;;;;;;4990967;28;20033;-74
2021/01/02 02:37:49;;;;;;;47.92;27.45;;;1.80;99.90;;;;;;4991544;28;20030;-74
2021/01/02 02:40:20;;;;;;;46.47;29.07;;;1.70;99.90;;;;;;4990133;28;20050;-74
2021/01/02 02:42:57;;;;;;;49.50;29.15;;;1.60;99.90;;;;;;4991756;28;20273;-74
2021/01/02 02:45:24;;;;;;;54.08;31.15;;;1.50;99.90;;;;;;4991485;28;20022;-74
2021/01/02 02:47:55;;;;;;;53.17;30.13;;;1.70;99.90;;;;;;4992004;28;20036;-74
2021/01/02 02:50:25;;;;;;;58.60;30.83;;;1.90;99.90;;;;;;4990787;28;20049;-74
2021/01/02 02:53:10;;;;;;;54.15;29.98;;;1.90;99.90;;;;;;4993834;28;20018;-74
2021/01/02 02:55:45;;;;;;;62.78;31.58;;;1.80;99.90;;;;;;4994146;28;20030;-74
2021/01/02 02:58:12;;;;;;;55.67;30.48;;;1.70;99.50;;;;;;4995232;28;20030;-74
2021/01/02 03:00:38;;;;;;;58.60;32.90;;;1.70;99.90;;;;;;4995193;28;20107;-74
2021/01/02 03:03:08;;;;;;;56.17;30.77;;;1.80;99.90;;;;;;4993692;28;20023;-74
2021/01/02 03:05:34;;;;;;;49.67;29.38;;;1.80;99.90;;;;;;4995077;28;20447;-74
2021/01/02 03:08:00;;;;;;;51.60;28.05;;;1.70;99.10;;;;;;4994885;28;20105;-74
2021/01/02 03:10:27;;;;;;;53.75;30.52;;;1.60;99.90;;;;;;4993690;28;20034;-74
2021/01/02 03:12:53;;;;;;;49.85;29.58;;;1.50;99.90;;;;;;4977176;28;20030;-74
2021/01/02 03:15:22;;;;;;;52.08;28.52;;;1.40;99.90;;;;;;4994608;28;20572;-74
2021/01/02 03:17:49;;;;;;;57.55;31.25;;;1.40;99.90;;;;;;4993422;28;20038;-74
2021/01/02 03:20:16;;;;;;;53.47;29.63;;;1.40;99.90;;;;;;4994887;28;20026;-74
2021/01/02 03:22:47;;;;;;;52.47;30.35;;;1.20;99.90;;;;;;4994586;28;20038;-74
2021/01/02 03:25:15;;;;;;;52.10;29.75;;;1.10;99.90;;;;;;4993167;28;20025;-74
2021/01/02 03:27:41;;;;;;;54.35;29.85;;;1.10;99.90;;;;;;4993177;28;20555;-74
2021/01/02 03:30:09;;;;;;;54.38;29.75;;;1.00;99.90;;;;;;4994583;28;20022;-74
2021/01/02 03:32:36;;;;;;;56.78;29.80;;;0.90;99.90;;;;;;4994330;28;20022;-74
2021/01/02 03:35:07;;;;;;;53.63;30.50;;;0.70;99.90;;;;;;4994410;28;20026;-74
2021/01/02 03:37:36;;;;;;;51.53;29.67;;;0.60;99.90;;;;;;4994064;28;20080;-74
2021/01/02 03:40:07;;;;;;;46.25;28.90;;;0.60;99.90;;;;;;4994473;28;20034;-74
2021/01/02 03:42:41;;;;;;;60.05;30.85;;;0.60;99.90;;;;;;4994430;28;20014;-74
2021/01/02 03:45:09;;;;;;;59.00;32.50;;;0.70;99.90;;;;;;4994242;28;20015;-74
2021/01/02 03:47:36;;;;;;;55.58;31.73;;;0.90;99.90;;;;;;4994376;28;20026;-74
2021/01/02 03:50:04;;;;;;;59.10;31.85;;;1.10;99.90;;;;;;4993972;28;20026;-74
2021/01/02 03:52:29;;;;;;;52.35;30.75;;;1.20;99.90;;;;;;4993049;28;20073;-74
2021/01/02 03:54:55;;;;;;;61.40;31.83;;;1.20;99.90;;;;;;4993812;28;20030;-74
2021/01/02 03:57:21;;;;;;;54.00;30.90;;;1.40;99.90;;;;;;4994185;28;20065;-74
2021/01/02 03:59:46;;;;;;;60.25;31.63;;;1.60;99.90;;;;;;4992593;28;20033;-74
2021/01/02 04:02:12;;;;;;;59.65;29.55;;;1.60;99.90;;;;;;4993852;28;20097;-74
2021/01/02 04:04:38;;;;;;;50.08;29.77;;;1.50;99.10;;;;;;4992993;28;20037;-74
2021/01/02 04:07:04;;;;;;;50.70;28.17;;;1.30;99.10;;;;;;4992827;28;20023;-74
2021/01/02 04:09:30;;;;;;;46.72;27.52;;;1.20;99.40;;;;;;4993678;28;20552;-74
2021/01/02 04:11:56;;;;;;;53.67;28.38;;;1.20;99.90;;;;;;4993973;28;20030;-74
2021/01/02 04:14:22;;;;;;;56.42;29.52;;;1.20;99.90;;;;;;4993469;28;20034;-74
2021/01/02 04:16:48;;;;;;;54.58;29.50;;;1.50;99.90;;;;;;4993785;28;20395;-74
2021/01/02 04:19:14;;;;;;;49.22;29.15;;;1.60;99.90;;;;;;4993434;28;20023;-74
2021/01/02 04:21:40;;;;;;;48.30;27.77;;;1.60;99.90;;;;;;4992599;28;20022;-74
2021/01/02 04:24:08;;;;;;;52.72;27.45;;;1.50;99.20;;;;;;4992287;28;20072;-74
2021/01/02 04:26:34;;;;;;;51.10;27.27;;;1.40;99.70;;;;;;4993835;28;20033;-74
2021/01/02 04:29:00;;;;;;;50.60;28.38;;;1.50;99.90;;;;;;4994256;28;20022;-74
2021/01/02 04:31:35;;;;;;;48.45;26.38;;;1.70;99.90;;;;;;4992357;28;20478;-74
2021/01/02 04:34:01;;;;;;;51.03;27.77;;;1.70;98.00;;;;;;4993465;28;20030;-74
2021/01/02 04:36:27;;;;;;;51.00;26.88;;;1.50;98.90;;;;;;4991818;28;20022;-74
2021/01/02 04:38:53;;;;;;;45.70;25.50;;;1.40;97.90;;;;;;4992217;28;20089;-74
2021/01/02 04:41:18;;;;;;;44.00;24.85;;;1.20;97.00;;;;;;4993449;28;20029;-74
2021/01/02 04:43:48;;;;;;;48.97;26.98;;;1.10;98.60;;;;;;4993406;28;20018;-74
2021/01/02 04:46:14;;;;;;;48.20;26.48;;;0.90;99.10;;;;;;4991633;28;20426;-74
2021/01/02 04:48:45;;;;;;;49.25;27.80;;;0.90;99.30;;;;;;4993171;28;20026;-74
2021/01/02 04:51:13;;;;;;;41.00;23.38;;;0.80;99.40;;;;;;4993065;28;20129;-74
2021/01/02 04:53:40;;;;;;;51.17;27.55;;;0.90;99.90;;;;;;4993180;28;20035;-74
2021/01/02 04:56:06;;;;;;;54.08;28.58;;;0.80;99.90;;;;;;4991252;28;20026;-74
2021/01/02 04:58:36;;;;;;;54.30;27.52;;;0.90;99.90;;;;;;4993072;28;20062;-74
2021/01/02 05:01:05;;;;;;;47.35;26.23;;;0.80;99.90;;;;;;4992656;28;20026;-74
2021/01/02 05:03:35;;;;;;;48.80;28.00;;;0.70;99.90;;;;;;4991598;28;20036;-74
2021/01/02 05:06:04;;;;;;;53.78;27.77;;;0.70;99.90;;;;;;4992553;28;20529;-74
2021/01/02 05:08:30;;;;;;;52.33;27.70;;;0.70;99.90;;;;;;4992738;28;20030;-74
2021/01/02 05:10:58;;;;;;;51.38;27.42;;;0.70;99.90;;;;;;4991548;28;20030;-74
2021/01/02 05:13:32;;;;;;;55.38;28.17;;;0.80;99.90;;;;;;4992320;28;20372;-74
2021/01/02 05:16:24;;;;;;;54.83;28.88;;;0.90;99.90;;;;;;4990119;28;20545;-74
2021/01/02 05:18:58;;;;;;;49.15;28.92;;;0.90;99.90;;;;;;4986129;28;20450;-74
2021/01/02 05:21:25;;;;;;;52.85;27.23;;;1.00;99.90;;;;;;4993024;28;20067;-74
2021/01/02 05:24:09;;;;;;;53.30;28.27;;;1.30;99.90;;;;;;4990783;28;20026;-74
2021/01/02 05:26:37;;;;;;;53.38;28.88;;;1.40;99.90;;;;;;4992551;28;20114;-74
2021/01/02 05:29:25;;;;;;;51.30;27.67;;;1.40;99.90;;;;;;4992126;28;20088;-74
2021/01/02 05:31:56;;;;;;;53.15;28.33;;;1.40;99.90;;;;;;4992377;28;20105;-74
2021/01/02 05:34:27;;;;;;;51.08;28.25;;;1.40;99.90;;;;;;4991795;28;20065;-74
2021/01/02 05:37:09;;;;;;;53.17;28.40;;;1.60;99.90;;;;;;4992322;28;20305;-74
2021/01/02 05:39:52;;;;;;;56.75;27.10;;;1.70;99.90;;;;;;4990813;28;20022;-74
2021/01/02 05:42:21;;;;;;;50.45;25.27;;;1.70;99.90;;;;;;4991048;28;20022;-74
2021/01/02 05:44:47;;;;;;;50.92;27.30;;;1.50;99.90;;;;;;4991674;28;20026;-74
2021/01/02 05:47:20;;;;;;;49.67;27.50;;;1.40;99.90;;;;;;4992190;28;20376;-74
2021/01/02 05:49:48;;;;;;;53.15;28.67;;;1.10;99.90;;;;;;4991805;28;20022;-74
2021/01/02 05:52:15;;;;;;;59.40;29.90;;;1.20;99.90;;;;;;4990784;28;20449;-74
2021/01/02 05:54:58;;;;;;;55.03;29.35;;;1.10;99.90;;;;;;4990267;28;20026;-74
2021/01/02 05:57:25;;;;;;;49.42;26.42;;;1.10;99.90;;;;;;4990682;28;20026;-74
2021/01/02 05:59:53;;;;;;;53.40;28.10;;;1.10;99.90;;;;;;4990260;28;20022;-74
2021/01/02 06:02:26;;;;;;;55.03;28.65;;;1.00;99.90;;;;;;4991837;28;20486;-74
2021/01/02 06:04:57;;;;;;;57.42;28.95;;;0.90;99.90;;;;;;4991668;28;20582;-74
2021/01/02 06:07:23;;;;;;;44.67;25.33;;;1.00;99.90;;;;;;4991957;28;20101;-74
2021/01/02 06:09:51;;;;;;;51.72;26.92;;;0.90;99.90;;;;;;4991573;28;20023;-74
2021/01/02 06:12:34;;;;;;;53.45;28.20;;;0.70;99.90;;;;;;4992498;28;20459;-74
2021/01/02 06:15:02;;;;;;;49.58;27.98;;;0.70;99.90;;;;;;4991881;28;20026;-74
2021/01/02 06:17:34;;;;;;;53.40;27.40;;;0.90;99.90;;;;;;4992015;28;20061;-74
2021/01/02 06:20:03;;;;;;;51.33;26.80;;;0.80;99.90;;;;;;4990213;28;20114;-74
2021/01/02 06:22:29;;;;;;;54.45;27.67;;;0.80;99.90;;;;;;4991780;28;20034;-74
2021/01/02 06:24:55;;;;;;;47.83;26.38;;;0.90;99.90;;;;;;4973894;28;20482;-74
2021/01/02 06:27:21;;;;;;;50.85;27.58;;;0.80;99.90;;;;;;4990131;28;20022;-74
2021/01/02 06:29:49;;;;;;;52.60;27.48;;;0.80;99.90;;;;;;4991432;28;20114;-74
2021/01/02 06:32:16;;;;;;;58.65;29.20;;;0.90;99.90;;;;;;4990254;28;20034;-74
2021/01/02 06:34:41;;;;;;;57.15;29.33;;;0.90;99.90;;;;;;4991007;28;20097;-74
2021/01/02 06:37:07;;;;;;;53.95;28.13;;;1.10;99.90;;;;;;4991344;28;20110;-74
2021/01/02 06:39:34;;;;;;;58.30;29.35;;;1.40;99.90;;;;;;4990293;28;20029;-74
2021/01/02 06:42:20;;;;;;;62.22;31.00;;;1.50;99.90;;;;;;4990121;28;20018;-74
2021/01/02 06:44:46;;;;;;;59.17;31.38;;;1.40;99.90;;;;;;4991046;28;20077;-74
2021/01/02 06:47:22;;;;;;;60.60;31.77;;;1.40;99.90;;;;;;4989745;28;20434;-74
2021/01/02 06:49:50;;;;;;;56.13;30.38;;;1.50;99.90;;;;;;4990104;28;20190;-74
2021/01/02 06:52:31;;;;;;;67.00;32.15;;;1.30;99.90;;;;;;4989946;28;20474;-74
2021/01/02 06:55:19;;;;;;;65.78;32.53;;;1.20;99.90;;;;;;4990092;28;20076;-74
2021/01/02 06:57:46;;;;;;;51.70;28.98;;;1.20;99.90;;;;;;4973519;28;20030;-74
2021/01/02 07:00:35;;;;;;;62.10;32.08;;;1.20;99.90;;;;;;4991204;28;20110;-74
2021/01/02 07:03:00;;;;;;;58.60;31.17;;;1.30;99.90;;;;;;4989737;28;20031;-74
2021/01/02 07:05:48;;;;;;;56.92;29.90;;;1.30;99.90;;;;;;4990848;28;20036;-74
2021/01/02 07:08:40;;;;;;;58.25;30.30;;;1.20;99.90;;;;;;4989749;28;20030;-74
2021/01/02 07:11:26;;;;;;;54.35;28.65;;;1.20;99.90;;;;;;4989638;28;20553;-74
2021/01/02 07:14:21;;;;;;;59.63;30.90;;;1.40;99.90;;;;;;4989917;28;20030;-74
2021/01/02 07:16:51;;;;;;;56.67;31.17;;;1.60;99.90;;;;;;4988683;28;20047;-74
2021/01/02 07:22:15;;;;;;;63.85;30.17;;;1.60;99.90;;;;;;4990839;28;20022;-75
2021/01/02 07:25:02;;;;;;;56.85;28.50;;;1.70;99.90;;;;;;5000546;28;20490;-74
2021/01/02 07:27:30;;;;;;;51.67;29.02;;;1.70;99.90;;;;;;4989696;28;20541;-74
2021/01/02 07:30:04;;;;;;;56.00;28.88;;;1.70;99.90;;;;;;4990986;28;20026;-74
2021/01/02 07:32:32;;;;;;;53.42;28.80;;;1.40;99.90;;;;;;4990803;28;20482;-74
2021/01/02 07:35:00;;;;;;;59.42;32.47;;;1.40;99.90;;;;;;4989468;28;20363;-74
2021/01/02 07:37:29;;;;;;;62.63;31.33;;;1.50;99.90;;;;;;4990533;28;20561;-74
2021/01/02 07:40:05;;;;;;;54.50;29.77;;;1.70;99.90;;;;;;4994317;28;20022;-74
2021/01/02 07:42:36;;;;;;;55.63;28.25;;;1.60;99.90;;;;;;4993213;28;20445;-74
2021/01/02 07:45:16;;;;;;;49.78;27.15;;;1.60;99.90;;;;;;4994398;28;20474;-74
2021/01/02 07:47:47;;;;;;;55.42;28.38;;;1.60;99.90;;;;;;4992849;28;20490;-74
2021/01/02 07:50:15;;;;;;;48.27;28.10;;;1.70;99.90;;;;;;4993460;28;20395;-74
2021/01/02 07:52:49;;;;;;;57.83;29.90;;;1.80;99.90;;;;;;4993527;28;20030;-74
2021/01/02 07:55:16;;;;;;;68.07;32.90;;;1.80;99.90;;;;;;4994431;28;20098;-74
2021/01/02 07:57:42;;;;;;;68.45;34.28;;;1.90;99.90;;;;;;4993537;28;20030;-74
2021/01/02 08:00:09;;;;;;;64.97;33.88;;;1.80;99.90;;;;;;4993996;28;20023;-74
2021/01/02 08:02:40;;;;;;;61.20;30.50;;;1.70;99.90;;;;;;4992973;28;20109;-74
2021/01/02 08:05:14;;;;;;;57.58;30.30;;;1.60;99.90;;;;;;4976219;28;20026;-74
2021/01/02 08:07:41;;;;;;;57.97;29.67;;;1.80;99.90;;;;;;4994184;28;20026;-74
2021/01/02 08:10:12;;;;;;;58.17;31.02;;;1.90;99.90;;;;;;4993713;28;20049;-74
2021/01/02 08:12:48;;;;;;;58.63;30.77;;;1.80;99.90;;;;;;4993943;28;20031;-74
2021/01/02 08:15:18;;;;;;;51.75;28.63;;;1.80;99.90;;;;;;4993185;28;20087;-74
2021/01/02 08:17:44;;;;;;;52.10;28.85;;;1.70;99.90;;;;;;4992611;28;20532;-74
2021/01/02 08:20:10;;;;;;;58.75;31.25;;;1.80;99.90;;;;;;4993488;28;20422;-74
2021/01/02 08:22:38;;;;;;;56.65;30.75;;;1.90;99.90;;;;;;4992560;28;20018;-74
2021/01/02 08:25:18;;;;;;;56.38;28.35;;;1.90;99.90;;;;;;4993176;28;20022;-74
2021/01/02 08:27:47;;;;;;;54.88;30.13;;;2.00;99.90;;;;;;4992458;28;20030;-74
2021/01/02 08:30:13;;;;;;;51.70;30.00;;;2.00;99.90;;;;;;4993259;28;20019;-74
2021/01/02 08:32:45;;;;;;;55.60;30.60;;;2.00;99.90;;;;;;5006111;28;20369;-74
2021/01/02 08:35:19;;;;;;;57.95;30.25;;;1.90;99.90;;;;;;5011092;28;20018;-74
2021/01/02 08:37:47;;;;;;;53.30;30.10;;;2.00;99.90;;;;;;5012813;28;20502;-74
2021/01/02 08:40:15;;;;;;;54.50;28.70;;;1.80;99.90;;;;;;5011181;28;20505;-74
2021/01/02 08:42:43;;;;;;;61.28;33.00;;;1.90;99.90;;;;;;5012834;28;20032;-74
2021/01/02 08:45:10;;;;;;;58.50;30.20;;;1.90;99.90;;;;;;5012296;28;20386;-74
2021/01/02 08:47:37;;;;;;;54.30;29.63;;;2.00;99.90;;;;;;5012656;28;20021;-74
2021/01/02 08:50:13;;;;;;;51.25;27.90;;;1.90;99.90;;;;;;5012320;28;20029;-74
2021/01/02 08:52:40;;;;;;;50.40;28.75;;;2.10;99.90;;;;;;5011553;28;20068;-74
2021/01/02 08:55:10;;;;;;;56.33;28.52;;;2.10;99.90;;;;;;5011718;28;20030;-75
2021/01/02 08:57:46;;;;;;;50.83;25.95;;;2.30;99.90;;;;;;5012085;28;20492;-75
2021/01/02 09:00:22;;;;;;;47.17;27.02;;;2.50;99.90;;;;;;5012516;28;20109;-74
2021/01/02 09:02:52;;;;;;;52.67;28.80;;;2.60;99.90;;;;;;5012074;28;20072;-74
2021/01/02 09:05:40;;;;;;;48.95;25.23;;;2.50;99.90;;;;;;5010760;28;20093;-74
2021/01/02 09:08:06;;;;;;;58.40;28.38;;;2.60;99.90;;;;;;5012040;28;20284;-75
2021/01/02 09:10:36;;;;;;;52.75;27.55;;;2.60;99.90;;;;;;5010758;28;20026;-74
2021/01/02 09:13:04;;;;;;;57.28;29.63;;;2.60;99.90;;;;;;5011640;28;20032;-73
2021/01/02 09:15:42;;;;;;;49.20;27.83;;;2.70;99.90;;;;;;5011583;28;20045;-74
2021/01/02 09:18:08;;;;;;;50.17;26.80;;;2.50;99.50;;;;;;5011806;28;20053;-74
2021/01/02 09:20:34;;;;;;;46.13;26.40;;;2.20;99.90;;;;;;5012304;28;20096;-74
2021/01/02 09:23:00;;;;;;;53.92;28.05;;;2.30;99.90;;;;;;5010454;28;20030;-74
2021/01/02 09:25:32;;;;;;;48.00;26.88;;;2.40;99.90;;;;;;5011601;28;20030;-74
2021/01/02 09:28:18;;;;;;;44.05;25.83;;;2.30;99.90;;;;;;5011806;28;20106;-75
2021/01/02 09:30:45;;;;;;;39.58;23.45;;;2.40;99.90;;;;;;5011740;28;20025;-74
2021/01/02 09:33:11;;;;;;;48.17;25.50;;;2.60;99.90;;;;;;5011529;28;20108;-75
2021/01/02 09:35:39;;;;;;;49.95;25.45;;;2.60;99.90;;;;;;5009836;28;20053;-74
2021/01/02 09:38:05;;;;;;;41.53;23.38;;;2.50;99.00;;;;;;5011801;28;20382;-74
2021/01/02 09:40:33;;;;;;;45.38;23.10;;;2.60;98.70;;;;;;5011404;28;20057;-75
2021/01/02 09:42:59;;;;;;;42.80;23.90;;;2.60;98.40;;;;;;5011532;28;20026;-74
2021/01/02 09:45:25;;;;;;;48.60;23.65;;;2.50;98.10;;;;;;5009668;28;20030;-74
2021/01/02 09:47:51;;;;;;;50.67;25.80;;;2.50;99.90;;;;;;5011578;28;20104;-74
2021/01/02 09:50:17;;;;;;;44.17;24.40;;;2.40;99.90;;;;;;5012041;28;20490;-74
2021/01/02 09:52:43;;;;;;;41.05;23.40;;;2.50;98.60;;;;;;5011440;28;20025;-75
2021/01/02 09:55:09;;;;;;;42.58;24.10;;;2.50;99.20;;;;;;5011215;28;20116;-74
2021/01/02 09:57:35;;;;;;;41.25;22.02;;;2.60;98.50;;;;;;5010795;28;20448;-74
2021/01/02 10:00:01;;;;;;;38.78;21.40;;;2.60;97.60;;;;;;5009893;28;20046;-74
2021/01/02 10:02:30;;;;;;;43.35;22.65;;;2.60;97.10;;;;;;5010050;28;20466;-74
2021/01/02 10:04:56;;;;;;;46.92;22.90;;;2.60;97.10;;;;;;5010833;28;20125;-74
2021/01/02 10:07:21;;;;;;;41.13;23.40;;;2.60;97.30;;;;;;5010905;28;20128;-75
2021/01/02 10:09:48;;;;;;;42.25;23.17;;;2.60;97.70;;;;;;5011048;28;20041;-74
2021/01/02 10:12:15;;;;;;;37.53;21.42;;;2.60;98.10;;;;;;5010907;28;20049;-74
2021/01/02 10:14:42;;;;;;;36.55;20.38;;;2.50;98.30;;;;;;5009539;28;20125;-74
2021/01/02 10:17:08;;;;;;;35.90;20.67;;;2.50;97.20;;;;;;5010634;28;20440;-75
2021/01/02 10:19:35;;;;;;;36.50;20.15;;;2.50;97.80;;;;;;5010825;28;20025;-74
2021/01/02 10:22:03;;;;;;;40.38;20.98;;;2.70;97.50;;;;;;5010523;28;20108;-75
2021/01/02 10:24:29;;;;;;;36.88;21.23;;;2.80;96.30;;;;;;5010318;28;20160;-74
2021/01/02 10:26:56;;;;;;;35.90;19.60;;;2.80;96.20;;;;;;5010791;28;20041;-74
2021/01/02 10:29:21;;;;;;;35.67;20.10;;;2.80;95.70;;;;;;5010390;28;20034;-75
2021/01/02 10:31:47;;;;;;;43.40;22.83;;;2.60;95.80;;;;;;5010865;28;20072;-74
2021/01/02 10:34:14;;;;;;;36.40;21.60;;;2.50;96.50;;;;;;5008502;28;20036;-73
2021/01/02 10:36:40;;;;;;;39.40;20.30;;;2.30;96.80;;;;;;5008334;28;20048;-74
2021/01/02 10:39:06;;;;;;;35.35;20.98;;;2.40;97.70;;;;;;5010469;28;20030;-74
2021/01/02 10:41:32;;;;;;;34.55;21.20;;;2.40;97.50;;;;;;5008558;28;20022;-74
2021/01/02 10:43:58;;;;;;;47.63;23.02;;;2.40;97.10;;;;;;5009212;28;20114;-74
2021/01/02 10:46:23;;;;;;;41.60;22.50;;;2.50;96.40;;;;;;5010410;28;20100;-73
2021/01/02 10:48:49;;;;;;;44.90;23.08;;;2.50;97.00;;;;;;5010743;28;20058;-74
2021/01/02 10:51:17;;;;;;;43.20;22.52;;;2.50;95.70;;;;;;5009003;28;20118;-75
2021/01/02 10:53:43;;;;;;;52.67;26.20;;;2.50;97.20;;;;;;5010605;28;20250;-74
2021/01/02 10:56:19;;;;;;;54.17;26.35;;;2.40;97.70;;;;;;5009934;28;20037;-74
2021/01/02 10:58:45;;;;;;;47.03;26.42;;;2.40;97.20;;;;;;5010527;28;20022;-74
2021/01/02 11:01:12;;;;;;;51.70;26.98;;;2.40;97.40;;;;;;5010550;28;20061;-74
2021/01/02 11:03:38;;;;;;;50.58;26.10;;;2.40;99.00;;;;;;5008987;28;20026;-74
2021/01/02 11:06:14;;;;;;;46.80;25.13;;;2.30;97.20;;;;;;5008582;28;20037;-75
2021/01/02 11:08:39;;;;;;;52.75;25.13;;;2.20;98.40;;;;;;5010081;28;20109;-75
2021/01/02 11:11:06;;;;;;;45.50;25.63;;;2.10;99.40;;;;;;5010580;28;20442;-74
2021/01/02 11:13:33;;;;;;;48.63;25.77;;;2.10;99.90;;;;;;5013361;28;20026;-75
2021/01/02 11:15:59;;;;;;;45.92;25.02;;;2.10;99.90;;;;;;5014003;28;20053;-73
2021/01/02 11:18:26;;;;;;;52.30;26.65;;;2.10;99.90;;;;;;5012770;28;20026;-73
2021/01/02 11:20:52;;;;;;;46.22;26.50;;;2.30;99.90;;;;;;5014145;28;20539;-74
2021/01/02 11:23:19;;;;;;;51.83;28.02;;;2.40;99.90;;;;;;5014446;28;20105;-75
2021/01/02 11:25:45;;;;;;;40.63;22.90;;;2.40;99.20;;;;;;5013727;28;20172;-73
2021/01/02 11:28:12;;;;;;;40.00;22.55;;;2.30;96.90;;;;;;5014288;28;20025;-74
2021/01/02 11:30:38;;;;;;;44.30;26.08;;;2.30;96.20;;;;;;5014126;28;20500;-74
2021/01/02 11:33:04;;;;;;;55.38;30.13;;;2.20;97.30;;;;;;5014574;28;20101;-75
2021/01/02 11:35:31;;;;;;;56.83;30.83;;;2.20;99.20;;;;;;5013864;28;20115;-74
2021/01/02 11:37:56;;;;;;;57.08;29.90;;;2.40;99.70;;;;;;5014098;28;20050;-74
2021/01/02 11:40:22;;;;;;;60.60;32.88;;;2.30;99.90;;;;;;5013681;28;20100;-74
2021/01/02 11:42:48;;;;;;;59.53;30.60;;;2.20;99.90;;;;;;5012525;28;20025;-75
2021/01/02 11:45:15;;;;;;;51.97;30.58;;;2.20;99.90;;;;;;5013610;28;20076;-74
2021/01/02 11:47:42;;;;;;;55.58;31.58;;;2.50;99.90;;;;;;5013486;28;20386;-75
2021/01/02 11:50:09;;;;;;;57.67;31.95;;;2.50;97.80;;;;;;5013547;28;20057;-74
2021/01/02 11:52:34;;;;;;;59.17;32.50;;;2.50;98.30;;;;;;4995518;28;20025;-74
2021/01/02 11:55:00;;;;;;;57.30;31.15;;;2.30;98.10;;;;;;5012169;28;20084;-74
2021/01/02 11:57:26;;;;;;;57.33;31.98;;;2.30;98.20;;;;;;5013260;28;20080;-77
2021/01/02 11:59:52;;;;;;;57.70;32.58;;;2.20;98.10;;;;;;5013680;28;20022;-74
2021/01/02 12:02:17;;;;;;;60.38;31.90;;;2.40;98.70;;;;;;5013190;28;20029;-74
2021/01/02 12:04:44;;;;;;;55.70;31.75;;;2.50;96.90;;;;;;5013195;28;20453;-74
2021/01/02 12:07:11;;;;;;;59.35;31.27;;;2.30;95.80;;;;;;5013431;28;20092;-74
2021/01/02 12:09:38;;;;;;;61.03;30.95;;;2.30;97.20;;;;;;5012909;28;20523;-75
2021/01/02 12:12:05;;;;;;;52.78;30.75;;;2.40;96.90;;;;;;5011869;28;20069;-74
2021/01/02 12:14:33;;;;;;;53.08;29.17;;;2.50;96.20;;;;;;5012478;28;20486;-75
2021/01/02 12:17:00;;;;;;;56.72;30.92;;;2.50;95.70;;;;;;5013017;28;20064;-74
2021/01/02 12:19:29;;;;;;;56.30;29.90;;;2.50;94.70;;;;;;5011503;28;20386;-74
2021/01/02 12:21:57;;;;;;;52.85;29.23;;;2.20;94.70;;;;;;5013047;28;20317;-74
2021/01/02 12:24:23;;;;;;;55.65;29.85;;;2.20;94.50;;;;;;5011771;28;20033;-74
2021/01/02 12:26:54;;;;;;;56.92;30.48;;;2.30;94.20;;;;;;5011525;28;20026;-74
2021/01/02 12:29:22;;;;;;;59.38;32.05;;;2.20;94.20;;;;;;5011472;28;20497;-74
2021/01/02 12:31:51;;;;;;;59.95;31.35;;;2.30;94.80;;;;;;5012184;28;20029;-76
2021/01/02 12:34:18;;;;;;;56.00;29.50;;;2.40;94.50;;;;;;5012569;28;20030;-73
2021/01/02 12:36:45;;;;;;;54.13;30.23;;;2.30;94.00;;;;;;5012130;28;20088;-74
2021/01/02 12:39:15;;;;;;;54.53;30.02;;;2.20;94.20;;;;;;5012600;28;20096;-74
2021/01/02 12:41:41;;;;;;;60.03;31.02;;;2.20;94.90;;;;;;5012235;28;20022;-74
2021/01/02 12:44:08;;;;;;;69.40;33.88;;;2.30;94.80;;;;;;5012506;28;20478;-74
2021/01/02 12:46:55;;;;;;;60.60;30.42;;;2.20;94.60;;;;;;5010885;28;20065;-73
2021/01/02 12:49:25;;;;;;;54.85;30.60;;;2.10;94.80;;;;;;5011268;28;20036;-74
2021/01/02 12:51:58;;;;;;;55.85;29.60;;;2.20;95.80;;;;;;5012213;28;20030;-73
2021/01/02 12:54:24;;;;;;;55.15;28.85;;;2.10;95.40;;;;;;5012248;28;20032;-74
2021/01/02 12:56:51;;;;;;;59.55;30.38;;;2.20;96.00;;;;;;5011005;28;20541;-74
2021/01/02 12:59:26;;;;;;;52.38;30.25;;;2.20;96.20;;;;;;5011944;28;20026;-74